Flight Track Log - Related Links

Times and Time Zones

All times are in EDT time to prevent confusion due to time zone crossing. See the EJA829P flight status page for this flight to view local times or setup timezone preferences in your user account.

Time Position Orientation Groundspeed Altitude Reporting Facility
EDT Latitude Longitude Course Direction KTS MPH feet Rate Location/Type
Thu 04:57:00 PM 41.9858 -93.6167 138° Southeast 151 174 1,600  Level Minneapolis Center
Thu 04:58:08 PM 41.9533 -93.5767 138° Southeast 188 216 4,600 2,492 Climbing Minneapolis Center
Thu 04:59:10 PM 41.9389 -93.4903 103° East 238 274 7,000 2,710 Climbing Minneapolis Center
Thu 05:00:12 PM 41.9156 -93.3894 107° East 284 327 10,200 2,732 Climbing Minneapolis Center
Thu 05:01:13 PM 41.8967 -93.2989 106° East 305 351 12,600 2,806 Climbing Minneapolis Center
Thu 05:02:16 PM 41.8667 -93.1614 106° East 318 366 16,000 2,715 Climbing Minneapolis Center
Thu 05:03:30 PM 41.8356 -93.0178 106° East 332 382 18,800 2,496 Climbing Minneapolis Center
Thu 05:04:33 PM 41.8031 -92.8694 106° East 345 397 21,700 2,304 Climbing Minneapolis Center
Thu 05:05:35 PM 41.7775 -92.7492 106° East 350 403 23,600 1,610 Climbing Minneapolis Center
Thu 05:06:36 PM 41.7589 -92.6450 103° East 357 411 25,000 2,032 Climbing Minneapolis Center
Thu 05:07:39 PM 41.7250 -92.4644 104° East 362 417 27,800 1,920 Climbing Minneapolis Center
Thu 05:08:41 PM 41.7017 -92.3331 103° East 363 418 29,000 581 Climbing Minneapolis Center
Thu 05:09:43 PM 41.6756 -92.1950 104° East 376 433 29,000  Level Minneapolis Center
Thu 05:10:45 PM 41.6475 -92.0386 103° East 393 452 29,000  Level Minneapolis Center
Thu 05:11:47 PM 41.6172 -91.8825 104° East 418 481 29,000  Level Minneapolis Center
Thu 05:13:01 PM 41.5836 -91.7075 104° East 436 502 29,000  Level Minneapolis Center
Thu 05:14:13 PM 41.5419 -91.4811 104° East 446 513 29,000  Level Chicago Center
Thu 05:15:15 PM 41.5103 -91.3228 105° East 447 514 29,000  Level Chicago Center
Thu 05:16:17 PM 41.4797 -91.1636 104° East 445 512 29,000 -48 Level Chicago Center
Thu 05:17:19 PM 41.4486 -91.0014 104° East 451 519 28,900 -1,306 Descending Chicago Center
Thu 05:18:21 PM 41.4094 -90.8083 105° East 450 518 26,300 -2,323 Descending Chicago Center
Thu 05:19:23 PM 41.3783 -90.6514 105° East 441 507 24,100 -1,113 Descending Chicago Center
Thu 05:20:25 PM 41.3489 -90.5050 105° East 414 476 24,000 -48 Descending Chicago Center
Thu 05:21:28 PM 41.3178 -90.3547 105° East 419 482 24,000 -726 Level Chicago Center
Thu 05:22:29 PM 41.2878 -90.2044 105° East 421 484 22,500 -1,597 Descending Chicago Center
Thu 05:23:32 PM 41.2572 -90.0556 105° East 416 479 20,700 -1,728 Descending Chicago Center
Thu 05:24:34 PM 41.2278 -89.9117 105° East 404 465 18,900 -1,839 Descending Chicago Center
Thu 05:25:36 PM 41.1931 -89.7417 105° East 397 457 16,900 -1,742 Descending Chicago Center
Thu 05:26:38 PM 41.1642 -89.6067 106° East 383 441 15,300 -1,548 Descending Chicago Center
Thu 05:27:40 PM 41.1694 -89.4692 87° East 374 430 13,700 -1,488 Descending Chicago Center
Thu 05:28:43 PM 41.1781 -89.3322 85° East 372 428 12,200 -1,440 Descending Chicago Center
Thu 05:29:45 PM 41.1864 -89.2019 85° East 359 413 10,700 -1,065 Descending Chicago Center
Thu 05:30:47 PM 41.1956 -89.0708 85° East 347 399 10,000 -339 Descending Chicago Center
Thu 05:31:49 PM 41.2033 -88.9458 85° East 345 397 10,000  Level Chicago Center
Thu 05:32:51 PM 41.2139 -88.8008 84° East 335 386 10,000 -581 Level Chicago Center
Thu 05:33:53 PM 41.2742 -88.7206 45° Northeast 306 352 8,800 -1,790 Descending Chicago Center
Thu 05:34:55 PM 41.3331 -88.6461 43° Northeast 297 342 6,300 -1,355 Descending Chicago Center
Thu 05:35:57 PM 41.3886 -88.5750 44° Northeast 290 334 6,000 -145 Descending Chicago Center
Thu 05:36:59 PM 41.4403 -88.5089 44° Northeast 273 314 6,000  Level Chicago Center
Thu 05:38:01 PM 41.4694 -88.4039 70° East 261 300 6,000 -484 Level Chicago Center
Thu 05:39:03 PM 41.4808 -88.3053 81° East 263 303 5,000 -1,440 Descending Chicago Center
Thu 05:40:06 PM 41.4914 -88.2033 82° East 271 312 3,000 -960 Descending Chicago Center
Thu 05:41:08 PM 41.5225 -88.1144 65° Northeast 265 305 3,000  Level Chicago Center
Thu 05:42:10 PM 41.5500 -88.0286 67° East 255 293 3,000  Level Chicago Center
Thu 05:43:12 PM 41.5614 -87.9303 81° East 269 310 3,000  Level Chicago Center
Thu 05:44:14 PM 41.5692 -87.8272 84° East 275 316 3,000  Level Chicago Center
Thu 05:45:16 PM 41.5775 -87.7072 85° East 274 315 3,000  Level Chicago Center
Thu 05:46:18 PM 41.5822 -87.6378 85° East 220 253 3,000  Level Chicago Center
Thu 05:47:20 PM 41.6108 -87.5794 57° Northeast 215 247 3,000  Level Chicago Center
Thu 05:48:22 PM 41.6575 -87.5833 356° North 201 231 3,000  Level Chicago Center
Thu 05:49:24 PM 41.6950 -87.6236 321° Northwest 185 213 3,000 -532 Level Chicago Center
Thu 05:50:26 PM 41.7331 -87.6792 313° West 176 203 1,900 -768 Descending Chicago Center
Thu 05:51:29 PM 41.7619 -87.7153 317° Northwest 162 186 1,400 -144 Descending Chicago Center
Thu 05:52:31 PM 41.7992 -87.6944 23° Northeast 153 176 1,600 -145 Climbing Chicago Center
Thu 05:53:33 PM 41.8069 -87.7300 286° West 136 157 1,100 -290 Descending Chicago Center
Thu 05:54:35 PM 41.7853 -87.7594 225° Southwest 131 151 1,000 -97 Descending Chicago Center

Login

Don't have an account? Register now (free) for customized features, flight alerts, and more!